Time;durP1;ratioP1;P1;durP2;ratioP2;P2;SDS_P1;SDS_P2;PMS_P1;PMS_P2;Temp;Humidity;BMP_temperature;BMP_pressure;BME280_temperature;BME280_humidity;BME280_pressure;Samples;Min_cycle;Max_cycle;Signal;HPM_P1;HPM_P2
2021/06/12 11:38:33;;;;;;;6.85;2.53;;;;;;;21.11;67.00;99675.78;2122373;27;20378;-74
2021/06/12 11:39:57;;;;;;;4.30;2.75;;;;;;;21.61;64.21;99675.53;2108215;28;20044;-73
2021/06/12 11:41:16;;;;;;;2.63;2.40;;;;;;;21.62;64.34;99662.84;2097869;28;20066;-73
2021/06/12 11:42:43;;;;;;;4.15;2.63;;;;;;;21.69;63.52;99667.09;2104041;28;20036;-73
2021/06/12 11:44:02;;;;;;;3.20;2.55;;;;;;;21.16;63.62;99673.75;2094236;28;20028;-73
2021/06/12 11:45:26;;;;;;;7.38;2.72;;;;;;;21.11;64.72;99664.94;2096142;28;20033;-73
2021/06/12 11:46:45;;;;;;;3.58;2.50;;;;;;;21.29;63.36;99664.19;2101696;28;20118;-73
2021/06/12 11:48:18;;;;;;;5.60;2.83;;;;;;;21.46;63.87;99670.78;2099851;28;20028;-74
2021/06/12 11:49:48;;;;;;;6.57;2.70;;;;;;;21.56;63.03;99664.03;2102384;28;20068;-74
2021/06/12 11:51:21;;;;;;;2.97;2.65;;;;;;;21.32;62.36;99664.03;2098077;28;20029;-74
2021/06/12 11:52:42;;;;;;;3.22;2.40;;;;;;;21.76;60.87;99660.44;2097016;28;20041;-75
2021/06/12 11:54:14;;;;;;;2.70;2.50;;;;;;;21.58;62.62;99666.66;2106941;28;20028;-74
2021/06/12 11:55:33;;;;;;;3.67;2.22;;;;;;;21.55;61.88;99661.38;2101650;28;20221;-75
2021/06/12 11:57:02;;;;;;;2.45;2.17;;;;;;;21.73;61.27;99641.59;2103332;28;20040;-74
2021/06/12 11:58:21;;;;;;;2.45;2.22;;;;;;;21.88;60.46;99650.91;2101709;28;20574;-74
2021/06/12 11:59:41;;;;;;;3.70;1.92;;;;;;;22.22;60.44;99647.56;2099651;28;20079;-74
2021/06/12 12:01:00;;;;;;;6.32;2.50;;;;;;;22.22;60.09;99644.84;2102691;28;20032;-73
2021/06/12 12:02:20;;;;;;;2.15;1.85;;;;;;;22.26;60.16;99645.66;2105854;28;20488;-74
2021/06/12 12:03:39;;;;;;;4.53;2.17;;;;;;;22.44;58.83;99650.19;2092021;28;20118;-74
2021/06/12 12:04:58;;;;;;;4.72;2.40;;;;;;;22.39;58.61;99654.97;2097925;28;20049;-73
2021/06/12 12:06:17;;;;;;;4.22;2.22;;;;;;;22.24;59.60;99653.84;2098594;28;20392;-73
2021/06/12 12:07:36;;;;;;;3.85;2.10;;;;;;;22.14;59.67;99652.47;2104581;28;20035;-73
2021/06/12 12:08:56;;;;;;;5.60;1.77;;;;;;;22.05;59.30;99651.06;2101333;28;20033;-74
2021/06/12 12:10:23;;;;;;;3.70;2.25;;;;;;;22.02;58.98;99643.03;2100404;28;20032;-75
2021/06/12 12:11:43;;;;;;;3.25;1.90;;;;;;;21.82;60.20;99641.19;2098022;28;20443;-74
2021/06/12 12:13:02;;;;;;;3.47;2.33;;;;;;;22.04;60.04;99635.69;2090076;28;20108;-74
2021/06/12 12:14:37;;;;;;;5.90;2.67;;;;;;;22.21;59.14;99658.50;2094422;28;20032;-74
2021/06/12 12:15:56;;;;;;;3.42;1.88;;;;;;;22.07;59.52;99643.72;2099687;28;20032;-73
2021/06/12 12:17:28;;;;;;;4.28;2.25;;;;;;;21.94;59.30;99637.06;2094880;28;20111;-75
2021/06/12 12:18:50;;;;;;;2.97;2.00;;;;;;;22.41;58.19;99650.34;2099588;28;20079;-73
2021/06/12 12:20:10;;;;;;;4.47;2.22;;;;;;;22.37;58.24;99637.00;2095325;28;20484;-74
2021/06/12 12:21:37;;;;;;;3.65;2.47;;;;;;;22.33;57.78;99644.41;2097856;28;20040;-72
2021/06/12 12:22:56;;;;;;;2.63;1.90;;;;;;;22.16;57.26;99649.69;2104036;28;20064;-73
2021/06/12 12:24:16;;;;;;;4.18;1.88;;;;;;;22.28;58.27;99628.31;2097047;28;20151;-72
2021/06/12 12:25:35;;;;;;;3.13;1.95;;;;;;;22.29;57.05;99643.66;2099489;28;20107;-72
2021/06/12 12:26:56;;;;;;;2.10;1.90;;;;;;;22.63;57.11;99633.06;2097612;28;20037;-74
2021/06/12 12:28:22;;;;;;;5.05;2.08;;;;;;;22.75;55.46;99627.03;2095454;28;20060;-73
2021/06/12 12:29:41;;;;;;;4.40;2.05;;;;;;;22.81;54.68;99642.16;2103086;28;20067;-73
2021/06/12 12:31:07;;;;;;;3.15;1.75;;;;;;;22.97;55.42;99623.28;2102745;28;20063;-74
2021/06/12 12:32:26;;;;;;;2.72;1.98;;;;;;;23.23;55.09;99630.22;2091645;28;20393;-73
2021/06/12 12:33:47;;;;;;;3.35;1.90;;;;;;;23.48;55.63;99627.13;2096715;28;20041;-73
2021/06/12 12:35:24;;;;;;;3.50;1.70;;;;;;;22.64;55.32;99623.97;2101374;28;20032;-73
2021/06/12 12:36:49;;;;;;;2.08;1.80;;;;;;;23.21;53.71;99626.69;2102541;28;20462;-73
2021/06/12 12:38:22;;;;;;;3.95;2.00;;;;;;;23.65;52.68;99624.41;2102397;28;20036;-73
2021/06/12 12:39:43;;;;;;;3.10;2.10;;;;;;;24.06;51.91;99640.47;2106228;28;20036;-73
2021/06/12 12:41:05;;;;;;;3.88;2.08;;;;;;;23.36;53.17;99628.63;2095572;28;20063;-73
2021/06/12 12:42:25;;;;;;;5.43;2.10;;;;;;;23.04;54.15;99632.94;2085958;28;20037;-75
2021/06/12 12:43:44;;;;;;;5.45;2.00;;;;;;;23.88;51.89;99620.53;2097208;28;20578;-74
2021/06/12 12:45:03;;;;;;;2.33;2.13;;;;;;;23.52;52.18;99634.19;2096114;28;20033;-73
2021/06/12 12:46:22;;;;;;;2.63;1.90;;;;;;;23.60;53.42;99621.06;2095053;28;20060;-74
2021/06/12 12:47:41;;;;;;;2.97;2.13;;;;;;;24.02;52.65;99616.22;2099043;28;20032;-74
2021/06/12 12:49:00;;;;;;;4.63;1.90;;;;;;;23.98;52.00;99617.34;2099279;28;20089;-74
2021/06/12 12:50:19;;;;;;;4.97;2.85;;;;;;;23.68;53.18;99615.22;2103200;28;20459;-77
2021/06/12 12:51:38;;;;;;;4.60;2.00;;;;;;;23.53;52.37;99627.78;2094199;28;20041;-77
2021/06/12 12:53:11;;;;;;;3.33;2.08;;;;;;;23.83;51.34;99627.19;2094444;28;20029;-74
2021/06/12 12:54:32;;;;;;;4.03;1.88;;;;;;;23.47;50.90;99631.72;2091256;28;20516;-75
2021/06/12 12:56:05;;;;;;;3.95;1.90;;;;;;;23.30;51.74;99618.06;2090820;28;20029;-76
2021/06/12 12:57:25;;;;;;;3.55;1.63;;;;;;;23.08;53.35;99607.38;2087949;28;20033;-77
2021/06/12 12:58:50;;;;;;;4.30;2.17;;;;;;;22.66;53.85;99632.91;2096190;28;20028;-75
2021/06/12 13:00:19;;;;;;;2.53;1.42;;;;;;;19.22;100.00;99844.63;2104781;28;20044;-75
